createdAt,value
2017-11-20T00:00:18.502Z," 6.12"
2017-11-20T00:05:13.932Z," 6.17"
2017-11-20T00:10:10.650Z," 6.09"
2017-11-20T00:15:05.902Z," 6.16"
2017-11-20T00:20:01.762Z," 6.12"
2017-11-20T00:24:58.055Z," 6.12"
2017-11-20T00:29:54.449Z," 6.16"
2017-11-20T00:34:51.091Z," 6.09"
2017-11-20T00:39:46.552Z," 6.07"
2017-11-20T00:44:42.256Z," 6.04"
2017-11-20T00:49:39.032Z," 6.05"
2017-11-20T00:54:35.566Z," 6.01"
2017-11-20T00:59:33.314Z," 5.89"
2017-11-20T01:04:28.315Z," 5.76"
2017-11-20T01:09:24.116Z," 5.91"
2017-11-20T01:14:19.592Z," 5.90"
2017-11-20T01:19:15.969Z," 5.97"
2017-11-20T01:24:11.604Z," 5.89"
2017-11-20T01:29:07.303Z," 5.90"
2017-11-20T01:34:02.994Z," 5.87"
2017-11-20T01:38:58.832Z," 5.89"
2017-11-20T01:43:57.251Z," 5.87"
2017-11-20T01:48:52.589Z," 6.02"
2017-11-20T01:53:49.536Z," 5.97"
2017-11-20T01:58:46.747Z," 6.04"
2017-11-20T02:03:43.971Z," 5.97"
2017-11-20T02:08:39.469Z," 6.01"
2017-11-20T02:13:35.314Z," 6.11"
2017-11-20T02:18:31.010Z," 6.11"
2017-11-20T02:23:26.894Z," 6.16"
2017-11-20T02:28:23.881Z," 6.20"
2017-11-20T02:33:20.368Z," 6.27"
2017-11-20T02:38:16.678Z," 6.30"
2017-11-20T02:43:13.120Z," 6.27"
2017-11-20T02:48:08.638Z," 6.14"
2017-11-20T02:53:04.161Z," 5.99"
2017-11-20T02:58:00.993Z," 5.97"
2017-11-20T03:02:56.349Z," 5.90"
2017-11-20T03:07:52.991Z," 5.87"
2017-11-20T03:12:48.410Z," 5.75"
2017-11-20T03:17:44.059Z," 5.93"
2017-11-20T03:22:39.733Z," 5.91"
2017-11-20T03:27:35.512Z," 5.89"
2017-11-20T03:32:31.252Z," 6.04"
2017-11-20T03:37:28.183Z," 6.08"
2017-11-20T03:42:24.634Z," 6.17"
2017-11-20T03:47:21.047Z," 6.17"
2017-11-20T03:52:17.920Z," 6.20"
2017-11-20T03:57:13.490Z," 6.27"
2017-11-20T04:02:09.856Z," 6.14"
2017-11-20T04:07:05.825Z," 6.12"
2017-11-20T04:12:01.654Z," 6.05"
2017-11-20T04:16:57.365Z," 6.12"
2017-11-20T04:21:55.143Z," 6.09"
2017-11-20T04:26:50.413Z," 6.07"
2017-11-20T04:31:46.001Z," 6.05"
2017-11-20T04:36:41.588Z," 6.14"
2017-11-20T04:41:37.308Z," 6.16"
2017-11-20T04:46:33.749Z," 6.24"
2017-11-20T04:51:30.567Z," 6.30"
2017-11-20T04:56:27.107Z," 6.17"
2017-11-20T05:01:23.161Z," 6.30"
2017-11-20T05:06:19.985Z," 6.28"
2017-11-20T05:11:16.187Z," 6.27"
2017-11-20T05:16:12.723Z," 6.31"
2017-11-20T05:21:09.073Z," 6.24"
2017-11-20T05:26:05.456Z," 6.33"
2017-11-20T05:31:00.844Z," 6.22"
2017-11-20T05:35:57.534Z," 6.27"
2017-11-20T05:40:54.041Z," 6.22"
2017-11-20T05:45:51.258Z," 6.17"
2017-11-20T05:50:46.767Z," 6.22"
2017-11-20T05:55:42.426Z," 6.09"
2017-11-20T06:00:38.616Z," 6.12"
2017-11-20T06:05:35.073Z," 6.16"
2017-11-20T06:10:30.885Z," 5.99"
2017-11-20T06:15:26.709Z," 6.04"
2017-11-20T06:20:23.442Z," 6.01"
2017-11-20T06:25:19.860Z," 6.01"
2017-11-20T06:30:16.337Z," 5.82"
2017-11-20T06:35:11.684Z," 5.86"
2017-11-20T06:40:08.842Z," 5.93"
2017-11-20T06:45:04.689Z," 5.98"
2017-11-20T06:50:00.676Z," 5.93"
2017-11-20T06:54:56.285Z," 5.97"
2017-11-20T06:59:52.191Z," 6.02"
2017-11-20T07:04:47.800Z," 5.99"
2017-11-20T07:09:44.192Z," 5.97"
2017-11-20T07:14:39.937Z," 5.86"
2017-11-20T07:19:36.728Z," 5.89"
2017-11-20T07:24:32.429Z," 5.98"
2017-11-20T07:29:28.221Z," 5.90"
2017-11-20T07:34:24.824Z," 6.04"
2017-11-20T07:39:21.421Z," 5.99"
2017-11-20T07:44:17.885Z," 6.02"
2017-11-20T07:49:13.300Z," 6.02"
2017-11-20T07:54:09.017Z," 5.98"
2017-11-20T07:59:06.770Z," 5.73"
2017-11-20T08:04:02.891Z," 5.79"
2017-11-20T08:09:00.122Z," 5.69"
2017-11-20T08:13:58.270Z," 5.68"
2017-11-20T08:18:53.470Z," 5.71"
2017-11-20T08:23:50.189Z," 5.72"
2017-11-20T08:28:45.663Z," 5.72"
2017-11-20T08:33:42.906Z," 5.69"
2017-11-20T08:38:38.638Z," 5.69"
2017-11-20T08:43:34.126Z," 5.66"
2017-11-20T08:48:31.075Z," 5.66"
2017-11-20T08:53:27.594Z," 5.59"
2017-11-20T08:58:23.654Z," 5.44"
2017-11-20T09:03:20.148Z," 5.39"
2017-11-20T09:08:15.954Z," 5.38"
2017-11-20T09:13:11.722Z," 5.48"
2017-11-20T09:18:08.343Z," 5.47"
2017-11-20T09:23:03.873Z," 5.48"
2017-11-20T09:28:00.685Z," 5.47"
2017-11-20T09:32:58.147Z," 5.41"
2017-11-20T09:37:54.383Z," 5.48"
2017-11-20T09:42:50.571Z," 5.56"
2017-11-20T09:47:46.293Z," 5.46"
2017-11-20T09:52:42.116Z," 5.44"
2017-11-20T09:57:38.841Z," 5.38"
2017-11-20T10:02:35.225Z," 5.25"
2017-11-20T10:07:30.736Z," 5.29"
2017-11-20T10:12:26.578Z," 5.23"
2017-11-20T10:17:22.103Z," 5.20"
2017-11-20T10:22:18.671Z," 5.30"
2017-11-20T10:27:15.134Z," 5.26"
2017-11-20T10:32:11.062Z," 5.41"
2017-11-20T10:37:07.379Z," 5.38"
2017-11-20T10:42:03.154Z," 5.28"
2017-11-20T10:46:58.979Z," 5.43"
2017-11-20T10:51:54.651Z," 5.30"
2017-11-20T10:56:51.626Z," 5.28"
2017-11-20T11:01:47.258Z," 5.36"
2017-11-20T11:06:44.057Z," 5.23"
2017-11-20T11:11:39.625Z," 5.21"
2017-11-20T11:16:35.428Z," 5.20"
2017-11-20T11:21:31.233Z," 5.08"
2017-11-20T11:26:26.808Z," 5.07"
2017-11-20T11:31:22.570Z," 5.11"
2017-11-20T11:36:18.346Z," 5.10"
2017-11-20T11:41:14.024Z," 5.02"
2017-11-20T11:46:09.339Z," 5.05"
2017-11-20T11:51:05.263Z," 5.07"
2017-11-20T11:56:02.324Z," 5.11"
2017-11-20T12:00:58.982Z," 5.17"
2017-11-20T12:05:54.686Z," 5.17"
2017-11-20T12:10:51.314Z," 5.12"
2017-11-20T12:15:46.811Z," 5.11"
2017-11-20T12:20:43.585Z," 5.14"
2017-11-20T12:25:39.108Z," 5.21"
2017-11-20T12:30:36.794Z," 5.21"
2017-11-20T12:35:31.838Z," 5.11"
2017-11-20T12:40:28.304Z," 5.00"
2017-11-20T12:45:25.699Z," 5.08"
2017-11-20T12:50:22.215Z," 5.20"
2017-11-20T12:55:17.567Z," 5.18"
2017-11-20T13:00:14.372Z," 5.23"
2017-11-20T13:05:11.874Z," 5.11"
2017-11-20T13:10:08.155Z," 5.18"
2017-11-20T13:15:03.054Z," 5.17"
2017-11-20T13:20:00.453Z," 5.14"
2017-11-20T13:24:56.893Z," 5.14"
2017-11-20T13:29:53.379Z," 5.25"
2017-11-20T13:34:49.738Z," 5.20"
2017-11-20T13:39:45.305Z," 5.23"
2017-11-20T13:44:41.169Z," 5.25"
2017-11-20T13:49:36.584Z," 5.29"
2017-11-20T13:54:33.341Z," 5.20"
2017-11-20T13:59:29.786Z," 5.26"
2017-11-20T14:04:25.108Z," 5.32"
2017-11-20T14:09:20.829Z," 5.41"
2017-11-20T14:14:17.067Z," 5.35"
2017-11-20T14:19:13.919Z," 5.35"
2017-11-20T14:24:09.285Z," 5.43"
2017-11-20T14:29:05.474Z," 5.38"
2017-11-20T14:34:02.146Z," 5.38"
2017-11-20T14:38:59.367Z," 5.53"
2017-11-20T14:43:55.896Z," 5.50"
2017-11-20T14:48:51.571Z," 5.59"
2017-11-20T14:53:47.249Z," 5.62"
2017-11-20T14:58:42.913Z," 5.61"
2017-11-20T15:03:40.186Z," 5.48"
2017-11-20T15:08:35.658Z," 5.69"
2017-11-20T15:13:31.066Z," 5.71"
2017-11-20T15:18:27.892Z," 5.69"
2017-11-20T15:23:23.395Z," 5.75"
2017-11-20T15:28:19.449Z," 5.76"
2017-11-20T15:33:15.959Z," 5.72"
2017-11-20T15:38:11.456Z," 5.82"
2017-11-20T15:43:07.265Z," 5.80"
2017-11-20T15:48:05.067Z," 5.89"
2017-11-20T15:53:01.826Z," 5.82"
2017-11-20T15:57:57.536Z," 5.84"
2017-11-20T16:02:53.285Z," 5.94"
2017-11-20T16:07:49.166Z," 6.01"
2017-11-20T16:12:44.902Z," 6.08"
2017-11-20T16:17:41.869Z," 6.12"
2017-11-20T16:22:39.416Z," 6.12"
2017-11-20T16:27:34.679Z," 6.16"
2017-11-20T16:32:30.597Z," 6.24"
2017-11-20T16:37:26.364Z," 6.24"
2017-11-20T16:42:23.188Z," 6.31"
2017-11-20T16:47:18.660Z," 6.39"
2017-11-20T16:52:14.446Z," 6.38"
2017-11-20T16:57:11.193Z," 6.42"
2017-11-20T17:02:06.680Z," 6.45"
2017-11-20T17:07:02.383Z," 6.49"
2017-11-20T17:11:59.358Z," 6.52"
2017-11-20T17:16:55.745Z," 6.52"
2017-11-20T17:21:53.452Z," 6.56"
2017-11-20T17:26:50.600Z," 6.60"
2017-11-20T17:31:45.839Z," 6.51"
2017-11-20T17:36:43.967Z," 6.64"
2017-11-20T17:41:40.987Z," 6.63"
2017-11-20T17:46:36.044Z," 6.60"
2017-11-20T17:51:32.438Z," 6.66"
2017-11-20T17:56:28.323Z," 6.70"
2017-11-20T18:01:25.290Z," 6.77"
2017-11-20T18:06:21.309Z," 6.75"
2017-11-20T18:11:17.100Z," 6.84"
2017-11-20T18:16:12.804Z," 6.89"
2017-11-20T18:21:08.665Z," 6.84"
2017-11-20T18:26:06.255Z," 6.93"
2017-11-20T18:31:02.313Z," 6.93"
2017-11-20T18:35:58.122Z," 6.92"
2017-11-20T18:40:53.805Z," 6.97"
2017-11-20T18:45:49.891Z," 7.05"
2017-11-20T18:50:46.824Z," 7.14"
2017-11-20T18:55:43.143Z," 7.20"
2017-11-20T19:00:38.763Z," 7.15"
2017-11-20T19:05:35.554Z," 7.25"
2017-11-20T19:10:32.143Z," 7.35"
2017-11-20T19:15:27.704Z," 7.36"
2017-11-20T19:20:23.583Z," 7.53"
2017-11-20T19:25:19.446Z," 7.50"
2017-11-20T19:30:15.243Z," 7.48"
2017-11-20T19:35:11.297Z," 7.50"
2017-11-20T19:40:07.003Z," 7.58"
2017-11-20T19:45:02.984Z," 7.70"
2017-11-20T19:49:59.934Z," 7.80"
2017-11-20T19:54:55.381Z," 7.87"
2017-11-20T19:59:51.157Z," 7.83"
2017-11-20T20:04:47.126Z," 7.93"
2017-11-20T20:09:43.200Z," 7.97"
2017-11-20T20:14:38.919Z," 8.15"
2017-11-20T20:19:34.839Z," 8.19"
2017-11-20T20:24:30.549Z," 8.28"
2017-11-20T20:29:28.490Z," 8.42"
2017-11-20T20:34:23.567Z," 8.55"
2017-11-20T20:39:20.731Z," 8.70"
2017-11-20T20:44:16.368Z," 8.71"
2017-11-20T20:49:12.166Z," 8.76"
2017-11-20T20:54:08.873Z," 8.91"
2017-11-20T20:59:06.331Z," 8.92"
2017-11-20T21:04:01.915Z," 9.13"
2017-11-20T21:08:57.654Z," 9.19"
2017-11-20T21:13:54.189Z," 9.16"
2017-11-20T21:18:50.785Z," 9.28"
2017-11-20T21:23:47.177Z," 9.37"
2017-11-20T21:28:43.627Z," 9.44"
2017-11-20T21:33:39.768Z," 9.39"
2017-11-20T21:38:36.211Z," 9.51"
2017-11-20T21:43:32.813Z," 9.46"
2017-11-20T21:48:29.329Z," 9.47"
2017-11-20T21:53:26.310Z," 9.72"
2017-11-20T21:58:21.872Z," 9.74"
2017-11-20T22:03:17.812Z," 9.72"
2017-11-20T22:08:14.904Z," 9.82"
2017-11-20T22:13:10.552Z," 9.80"
2017-11-20T22:18:07.138Z," 9.79"
2017-11-20T22:23:02.740Z," 9.79"
2017-11-20T22:27:59.107Z," 9.89"
2017-11-20T22:32:55.810Z," 9.87"
2017-11-20T22:37:52.789Z," 9.91"
2017-11-20T22:42:48.336Z," 9.95"
2017-11-20T22:47:44.253Z," 9.94"
2017-11-20T22:52:41.082Z," 9.91"
2017-11-20T22:57:37.345Z,10.12
2017-11-20T23:02:32.874Z,10.15
2017-11-20T23:07:29.078Z,10.16
2017-11-20T23:12:25.085Z,10.25
2017-11-20T23:17:21.654Z,10.28
2017-11-20T23:22:17.620Z,10.33
2017-11-20T23:27:14.274Z,10.26
2017-11-20T23:32:09.772Z,10.33
2017-11-20T23:37:07.637Z,10.38
2017-11-20T23:42:03.440Z,10.26
2017-11-20T23:46:58.922Z,10.31
2017-11-20T23:51:56.325Z,10.33
2017-11-20T23:56:51.844Z,10.23
